sensor_id;sensor_type;location;lat;lon;timestamp;P1;durP1;ratioP1;P2;durP2;ratioP2
23680;SDS011;62915;50.832;4.462;2022-12-07T00:01:42;18.25;;;13.77;;
23680;SDS011;62915;50.832;4.462;2022-12-07T00:04:10;21.13;;;15.45;;
23680;SDS011;62915;50.832;4.462;2022-12-07T00:06:39;23.30;;;14.63;;
23680;SDS011;62915;50.832;4.462;2022-12-07T00:09:13;19.05;;;15.05;;
23680;SDS011;62915;50.832;4.462;2022-12-07T00:11:41;21.08;;;15.35;;
23680;SDS011;62915;50.832;4.462;2022-12-07T00:14:10;22.55;;;15.43;;
23680;SDS011;62915;50.832;4.462;2022-12-07T00:16:38;22.75;;;16.52;;
23680;SDS011;62915;50.832;4.462;2022-12-07T00:19:04;21.63;;;15.80;;
23680;SDS011;62915;50.832;4.462;2022-12-07T00:21:31;22.65;;;15.95;;
23680;SDS011;62915;50.832;4.462;2022-12-07T00:23:59;22.27;;;16.30;;
23680;SDS011;62915;50.832;4.462;2022-12-07T00:26:26;22.95;;;16.25;;
23680;SDS011;62915;50.832;4.462;2022-12-07T00:28:55;25.25;;;17.05;;
23680;SDS011;62915;50.832;4.462;2022-12-07T00:31:23;28.48;;;16.63;;
23680;SDS011;62915;50.832;4.462;2022-12-07T00:33:54;20.88;;;16.05;;
23680;SDS011;62915;50.832;4.462;2022-12-07T00:36:21;25.40;;;17.10;;
23680;SDS011;62915;50.832;4.462;2022-12-07T00:38:51;20.40;;;16.25;;
23680;SDS011;62915;50.832;4.462;2022-12-07T00:41:22;26.23;;;16.80;;
23680;SDS011;62915;50.832;4.462;2022-12-07T00:43:49;25.63;;;16.10;;
23680;SDS011;62915;50.832;4.462;2022-12-07T00:46:16;22.83;;;16.00;;
23680;SDS011;62915;50.832;4.462;2022-12-07T00:48:43;23.15;;;16.90;;
23680;SDS011;62915;50.832;4.462;2022-12-07T00:51:10;25.33;;;15.70;;
23680;SDS011;62915;50.832;4.462;2022-12-07T00:53:37;24.77;;;16.90;;
23680;SDS011;62915;50.832;4.462;2022-12-07T00:56:07;28.48;;;16.77;;
23680;SDS011;62915;50.832;4.462;2022-12-07T00:58:36;24.70;;;17.90;;
23680;SDS011;62915;50.832;4.462;2022-12-07T01:01:03;23.50;;;17.35;;
23680;SDS011;62915;50.832;4.462;2022-12-07T01:03:33;33.17;;;17.58;;
23680;SDS011;62915;50.832;4.462;2022-12-07T01:06:02;24.48;;;17.45;;
23680;SDS011;62915;50.832;4.462;2022-12-07T01:08:30;27.48;;;16.60;;
23680;SDS011;62915;50.832;4.462;2022-12-07T01:10:58;24.23;;;17.10;;
23680;SDS011;62915;50.832;4.462;2022-12-07T01:13:25;28.08;;;17.85;;
23680;SDS011;62915;50.832;4.462;2022-12-07T01:15:55;24.45;;;16.67;;
23680;SDS011;62915;50.832;4.462;2022-12-07T01:18:23;21.83;;;16.88;;
23680;SDS011;62915;50.832;4.462;2022-12-07T01:21:05;26.08;;;17.73;;
23680;SDS011;62915;50.832;4.462;2022-12-07T01:23:36;29.25;;;17.73;;
23680;SDS011;62915;50.832;4.462;2022-12-07T01:26:04;27.42;;;16.98;;
23680;SDS011;62915;50.832;4.462;2022-12-07T01:28:31;23.92;;;17.88;;
23680;SDS011;62915;50.832;4.462;2022-12-07T01:33:26;27.92;;;18.27;;
23680;SDS011;62915;50.832;4.462;2022-12-07T01:35:53;24.67;;;15.95;;
23680;SDS011;62915;50.832;4.462;2022-12-07T01:38:19;21.83;;;16.45;;
23680;SDS011;62915;50.832;4.462;2022-12-07T01:40:45;24.55;;;16.52;;
23680;SDS011;62915;50.832;4.462;2022-12-07T01:43:19;31.27;;;18.10;;
23680;SDS011;62915;50.832;4.462;2022-12-07T01:45:46;26.77;;;17.75;;
23680;SDS011;62915;50.832;4.462;2022-12-07T01:48:12;27.40;;;18.02;;
23680;SDS011;62915;50.832;4.462;2022-12-07T01:50:42;25.17;;;17.98;;
23680;SDS011;62915;50.832;4.462;2022-12-07T01:53:10;25.77;;;18.85;;
23680;SDS011;62915;50.832;4.462;2022-12-07T01:55:37;30.55;;;18.45;;
23680;SDS011;62915;50.832;4.462;2022-12-07T01:58:06;23.20;;;17.15;;
23680;SDS011;62915;50.832;4.462;2022-12-07T02:00:32;26.63;;;17.33;;
23680;SDS011;62915;50.832;4.462;2022-12-07T02:03:06;24.25;;;16.85;;
23680;SDS011;62915;50.832;4.462;2022-12-07T02:06:12;23.63;;;16.33;;
23680;SDS011;62915;50.832;4.462;2022-12-07T02:08:43;23.75;;;17.20;;
23680;SDS011;62915;50.832;4.462;2022-12-07T02:11:09;26.45;;;16.42;;
23680;SDS011;62915;50.832;4.462;2022-12-07T02:13:36;24.73;;;17.15;;
23680;SDS011;62915;50.832;4.462;2022-12-07T02:18:34;25.15;;;16.67;;
23680;SDS011;62915;50.832;4.462;2022-12-07T02:21:11;22.33;;;15.57;;
23680;SDS011;62915;50.832;4.462;2022-12-07T02:29:22;24.60;;;17.02;;
23680;SDS011;62915;50.832;4.462;2022-12-07T02:35:07;23.20;;;15.45;;
23680;SDS011;62915;50.832;4.462;2022-12-07T02:37:38;24.13;;;16.17;;
23680;SDS011;62915;50.832;4.462;2022-12-07T02:43:10;25.40;;;16.40;;
23680;SDS011;62915;50.832;4.462;2022-12-07T02:45:41;25.65;;;17.35;;
23680;SDS011;62915;50.832;4.462;2022-12-07T02:48:09;23.80;;;15.85;;
23680;SDS011;62915;50.832;4.462;2022-12-07T02:50:43;23.42;;;17.25;;
23680;SDS011;62915;50.832;4.462;2022-12-07T02:53:32;25.25;;;16.65;;
23680;SDS011;62915;50.832;4.462;2022-12-07T02:56:03;25.10;;;18.42;;
23680;SDS011;62915;50.832;4.462;2022-12-07T03:06:56;27.73;;;16.02;;
23680;SDS011;62915;50.832;4.462;2022-12-07T03:09:49;22.23;;;15.27;;
23680;SDS011;62915;50.832;4.462;2022-12-07T03:15:12;21.95;;;14.00;;
23680;SDS011;62915;50.832;4.462;2022-12-07T03:17:43;18.75;;;14.05;;
23680;SDS011;62915;50.832;4.462;2022-12-07T03:20:13;17.63;;;13.13;;
23680;SDS011;62915;50.832;4.462;2022-12-07T03:22:43;18.60;;;14.15;;
23680;SDS011;62915;50.832;4.462;2022-12-07T03:25:12;19.60;;;14.07;;
23680;SDS011;62915;50.832;4.462;2022-12-07T03:27:52;19.08;;;13.32;;
23680;SDS011;62915;50.832;4.462;2022-12-07T03:30:23;16.77;;;12.45;;
23680;SDS011;62915;50.832;4.462;2022-12-07T03:32:57;19.77;;;13.50;;
23680;SDS011;62915;50.832;4.462;2022-12-07T03:35:39;17.30;;;13.57;;
23680;SDS011;62915;50.832;4.462;2022-12-07T03:43:37;18.95;;;13.02;;
23680;SDS011;62915;50.832;4.462;2022-12-07T03:49:13;24.70;;;12.75;;
23680;SDS011;62915;50.832;4.462;2022-12-07T03:54:32;21.35;;;14.75;;
23680;SDS011;62915;50.832;4.462;2022-12-07T03:57:01;20.00;;;13.20;;
23680;SDS011;62915;50.832;4.462;2022-12-07T03:59:30;19.30;;;13.63;;
23680;SDS011;62915;50.832;4.462;2022-12-07T04:01:57;22.88;;;13.60;;
23680;SDS011;62915;50.832;4.462;2022-12-07T04:04:28;18.73;;;13.43;;
23680;SDS011;62915;50.832;4.462;2022-12-07T04:06:55;19.95;;;12.25;;
23680;SDS011;62915;50.832;4.462;2022-12-07T04:09:21;18.48;;;12.30;;
23680;SDS011;62915;50.832;4.462;2022-12-07T04:11:47;19.48;;;13.68;;
23680;SDS011;62915;50.832;4.462;2022-12-07T04:14:13;15.68;;;12.63;;
23680;SDS011;62915;50.832;4.462;2022-12-07T04:16:48;19.67;;;13.40;;
23680;SDS011;62915;50.832;4.462;2022-12-07T04:19:17;19.00;;;13.05;;
23680;SDS011;62915;50.832;4.462;2022-12-07T04:21:44;16.83;;;12.77;;
23680;SDS011;62915;50.832;4.462;2022-12-07T04:24:11;15.35;;;12.07;;
23680;SDS011;62915;50.832;4.462;2022-12-07T04:26:38;17.67;;;13.18;;
23680;SDS011;62915;50.832;4.462;2022-12-07T04:29:04;15.80;;;12.15;;
23680;SDS011;62915;50.832;4.462;2022-12-07T04:31:30;16.08;;;11.85;;
23680;SDS011;62915;50.832;4.462;2022-12-07T04:33:55;16.25;;;12.20;;
23680;SDS011;62915;50.832;4.462;2022-12-07T04:36:21;16.30;;;12.20;;
23680;SDS011;62915;50.832;4.462;2022-12-07T04:38:47;15.88;;;12.50;;
23680;SDS011;62915;50.832;4.462;2022-12-07T04:41:12;16.25;;;12.10;;
23680;SDS011;62915;50.832;4.462;2022-12-07T04:43:38;19.67;;;11.85;;
23680;SDS011;62915;50.832;4.462;2022-12-07T04:46:04;17.27;;;12.02;;
23680;SDS011;62915;50.832;4.462;2022-12-07T04:48:30;16.73;;;12.23;;
23680;SDS011;62915;50.832;4.462;2022-12-07T04:50:56;18.85;;;12.40;;
23680;SDS011;62915;50.832;4.462;2022-12-07T04:53:21;19.25;;;12.95;;
23680;SDS011;62915;50.832;4.462;2022-12-07T04:55:47;20.60;;;12.68;;
23680;SDS011;62915;50.832;4.462;2022-12-07T04:58:13;19.52;;;13.82;;
23680;SDS011;62915;50.832;4.462;2022-12-07T05:00:40;20.67;;;14.30;;
23680;SDS011;62915;50.832;4.462;2022-12-07T05:03:06;18.40;;;13.85;;
23680;SDS011;62915;50.832;4.462;2022-12-07T05:05:34;19.17;;;14.20;;
23680;SDS011;62915;50.832;4.462;2022-12-07T05:07:59;23.42;;;13.70;;
23680;SDS011;62915;50.832;4.462;2022-12-07T05:10:27;20.75;;;14.40;;
23680;SDS011;62915;50.832;4.462;2022-12-07T05:12:53;19.58;;;14.82;;
23680;SDS011;62915;50.832;4.462;2022-12-07T05:15:18;20.05;;;14.18;;
23680;SDS011;62915;50.832;4.462;2022-12-07T05:17:44;18.48;;;14.43;;
23680;SDS011;62915;50.832;4.462;2022-12-07T05:20:10;22.33;;;15.65;;
23680;SDS011;62915;50.832;4.462;2022-12-07T05:22:35;22.33;;;15.57;;
23680;SDS011;62915;50.832;4.462;2022-12-07T05:25:01;21.92;;;16.65;;
23680;SDS011;62915;50.832;4.462;2022-12-07T05:27:27;24.83;;;19.05;;
23680;SDS011;62915;50.832;4.462;2022-12-07T05:29:53;24.13;;;19.27;;
23680;SDS011;62915;50.832;4.462;2022-12-07T05:32:18;26.50;;;18.85;;
23680;SDS011;62915;50.832;4.462;2022-12-07T05:34:44;22.05;;;16.05;;
23680;SDS011;62915;50.832;4.462;2022-12-07T05:37:10;21.38;;;16.17;;
23680;SDS011;62915;50.832;4.462;2022-12-07T05:39:35;23.80;;;16.75;;
23680;SDS011;62915;50.832;4.462;2022-12-07T05:42:02;25.08;;;16.95;;
23680;SDS011;62915;50.832;4.462;2022-12-07T05:44:37;31.80;;;20.95;;
23680;SDS011;62915;50.832;4.462;2022-12-07T05:47:03;37.08;;;23.35;;
23680;SDS011;62915;50.832;4.462;2022-12-07T05:49:29;26.27;;;18.40;;
23680;SDS011;62915;50.832;4.462;2022-12-07T05:51:55;23.98;;;18.48;;
23680;SDS011;62915;50.832;4.462;2022-12-07T05:54:21;32.70;;;21.95;;
23680;SDS011;62915;50.832;4.462;2022-12-07T05:56:49;24.38;;;19.15;;
23680;SDS011;62915;50.832;4.462;2022-12-07T05:59:17;24.60;;;17.45;;
23680;SDS011;62915;50.832;4.462;2022-12-07T06:04:14;21.38;;;14.88;;
23680;SDS011;62915;50.832;4.462;2022-12-07T06:06:40;21.73;;;14.95;;
23680;SDS011;62915;50.832;4.462;2022-12-07T06:09:08;23.95;;;15.55;;
23680;SDS011;62915;50.832;4.462;2022-12-07T06:11:37;24.60;;;14.65;;
23680;SDS011;62915;50.832;4.462;2022-12-07T06:14:22;19.92;;;14.70;;
23680;SDS011;62915;50.832;4.462;2022-12-07T06:16:50;20.23;;;13.68;;
23680;SDS011;62915;50.832;4.462;2022-12-07T06:19:16;21.70;;;13.68;;
23680;SDS011;62915;50.832;4.462;2022-12-07T06:21:42;21.35;;;14.32;;
23680;SDS011;62915;50.832;4.462;2022-12-07T06:24:11;18.48;;;13.32;;
23680;SDS011;62915;50.832;4.462;2022-12-07T06:26:40;17.58;;;13.45;;
23680;SDS011;62915;50.832;4.462;2022-12-07T06:29:06;17.50;;;13.38;;
23680;SDS011;62915;50.832;4.462;2022-12-07T06:31:31;21.48;;;13.80;;
23680;SDS011;62915;50.832;4.462;2022-12-07T06:34:01;22.23;;;13.35;;
23680;SDS011;62915;50.832;4.462;2022-12-07T06:36:30;21.35;;;13.05;;
23680;SDS011;62915;50.832;4.462;2022-12-07T06:38:56;19.65;;;13.63;;
23680;SDS011;62915;50.832;4.462;2022-12-07T06:41:22;20.10;;;13.50;;
23680;SDS011;62915;50.832;4.462;2022-12-07T06:43:48;17.73;;;12.05;;
23680;SDS011;62915;50.832;4.462;2022-12-07T06:46:14;22.75;;;12.50;;
23680;SDS011;62915;50.832;4.462;2022-12-07T06:48:41;18.65;;;12.32;;
23680;SDS011;62915;50.832;4.462;2022-12-07T06:51:07;17.65;;;12.50;;
23680;SDS011;62915;50.832;4.462;2022-12-07T06:53:34;21.35;;;13.63;;
23680;SDS011;62915;50.832;4.462;2022-12-07T06:56:00;20.90;;;13.75;;
23680;SDS011;62915;50.832;4.462;2022-12-07T06:58:26;21.13;;;13.30;;
23680;SDS011;62915;50.832;4.462;2022-12-07T07:00:54;21.42;;;14.25;;
23680;SDS011;62915;50.832;4.462;2022-12-07T07:03:23;23.75;;;14.45;;
23680;SDS011;62915;50.832;4.462;2022-12-07T07:05:49;20.35;;;13.77;;
23680;SDS011;62915;50.832;4.462;2022-12-07T07:08:14;18.00;;;13.80;;
23680;SDS011;62915;50.832;4.462;2022-12-07T07:10:43;21.35;;;15.50;;
23680;SDS011;62915;50.832;4.462;2022-12-07T07:13:08;25.98;;;19.02;;
23680;SDS011;62915;50.832;4.462;2022-12-07T07:15:34;23.73;;;16.88;;
23680;SDS011;62915;50.832;4.462;2022-12-07T07:18:04;29.70;;;15.73;;
23680;SDS011;62915;50.832;4.462;2022-12-07T07:20:30;21.25;;;15.13;;
23680;SDS011;62915;50.832;4.462;2022-12-07T07:22:55;22.17;;;15.02;;
23680;SDS011;62915;50.832;4.462;2022-12-07T07:25:22;19.05;;;14.52;;
23680;SDS011;62915;50.832;4.462;2022-12-07T07:27:47;26.40;;;15.98;;
23680;SDS011;62915;50.832;4.462;2022-12-07T07:30:13;21.95;;;14.48;;
23680;SDS011;62915;50.832;4.462;2022-12-07T07:32:39;19.90;;;14.98;;
23680;SDS011;62915;50.832;4.462;2022-12-07T07:35:05;20.95;;;15.63;;
23680;SDS011;62915;50.832;4.462;2022-12-07T07:37:31;23.48;;;14.02;;
23680;SDS011;62915;50.832;4.462;2022-12-07T07:39:57;18.90;;;13.85;;
23680;SDS011;62915;50.832;4.462;2022-12-07T07:42:22;22.65;;;13.10;;
23680;SDS011;62915;50.832;4.462;2022-12-07T07:44:48;18.77;;;12.68;;
23680;SDS011;62915;50.832;4.462;2022-12-07T07:47:13;17.55;;;13.38;;
23680;SDS011;62915;50.832;4.462;2022-12-07T07:49:39;17.67;;;13.73;;
23680;SDS011;62915;50.832;4.462;2022-12-07T07:52:05;18.02;;;12.73;;
23680;SDS011;62915;50.832;4.462;2022-12-07T07:54:31;19.38;;;13.43;;
23680;SDS011;62915;50.832;4.462;2022-12-07T07:56:57;21.45;;;13.38;;
23680;SDS011;62915;50.832;4.462;2022-12-07T07:59:23;18.10;;;12.43;;
23680;SDS011;62915;50.832;4.462;2022-12-07T08:01:50;17.83;;;12.95;;
23680;SDS011;62915;50.832;4.462;2022-12-07T08:04:16;20.00;;;13.02;;
23680;SDS011;62915;50.832;4.462;2022-12-07T08:06:41;19.17;;;13.52;;
23680;SDS011;62915;50.832;4.462;2022-12-07T08:09:08;17.52;;;12.85;;
23680;SDS011;62915;50.832;4.462;2022-12-07T08:11:34;15.13;;;11.98;;
23680;SDS011;62915;50.832;4.462;2022-12-07T08:14:01;18.13;;;12.40;;
23680;SDS011;62915;50.832;4.462;2022-12-07T08:16:27;19.25;;;13.27;;
23680;SDS011;62915;50.832;4.462;2022-12-07T08:18:54;20.05;;;13.30;;
23680;SDS011;62915;50.832;4.462;2022-12-07T08:21:20;16.73;;;12.43;;
23680;SDS011;62915;50.832;4.462;2022-12-07T08:23:46;25.52;;;13.15;;
23680;SDS011;62915;50.832;4.462;2022-12-07T08:26:12;22.25;;;13.52;;
23680;SDS011;62915;50.832;4.462;2022-12-07T08:28:40;17.25;;;13.60;;
23680;SDS011;62915;50.832;4.462;2022-12-07T08:31:07;20.77;;;12.85;;
23680;SDS011;62915;50.832;4.462;2022-12-07T08:33:44;18.58;;;12.65;;
23680;SDS011;62915;50.832;4.462;2022-12-07T08:36:11;18.55;;;13.00;;
23680;SDS011;62915;50.832;4.462;2022-12-07T08:38:38;17.48;;;13.88;;
23680;SDS011;62915;50.832;4.462;2022-12-07T08:41:05;21.95;;;13.40;;
23680;SDS011;62915;50.832;4.462;2022-12-07T08:43:32;18.45;;;14.15;;
23680;SDS011;62915;50.832;4.462;2022-12-07T08:48:50;21.95;;;13.95;;
23680;SDS011;62915;50.832;4.462;2022-12-07T08:51:36;27.90;;;14.25;;
23680;SDS011;62915;50.832;4.462;2022-12-07T08:54:04;22.75;;;15.07;;
23680;SDS011;62915;50.832;4.462;2022-12-07T08:56:33;21.33;;;14.77;;
23680;SDS011;62915;50.832;4.462;2022-12-07T08:58:59;21.58;;;14.48;;
23680;SDS011;62915;50.832;4.462;2022-12-07T09:01:25;24.10;;;15.07;;
23680;SDS011;62915;50.832;4.462;2022-12-07T09:03:52;22.45;;;14.55;;
23680;SDS011;62915;50.832;4.462;2022-12-07T09:06:18;21.42;;;13.88;;
23680;SDS011;62915;50.832;4.462;2022-12-07T09:08:45;20.35;;;14.23;;
23680;SDS011;62915;50.832;4.462;2022-12-07T09:11:12;23.10;;;13.55;;
23680;SDS011;62915;50.832;4.462;2022-12-07T09:13:38;18.20;;;14.00;;
23680;SDS011;62915;50.832;4.462;2022-12-07T09:16:04;21.63;;;12.77;;
23680;SDS011;62915;50.832;4.462;2022-12-07T09:18:29;21.67;;;12.95;;
23680;SDS011;62915;50.832;4.462;2022-12-07T09:20:55;21.75;;;12.30;;
23680;SDS011;62915;50.832;4.462;2022-12-07T09:23:21;17.83;;;11.57;;
23680;SDS011;62915;50.832;4.462;2022-12-07T09:25:47;21.08;;;13.07;;
23680;SDS011;62915;50.832;4.462;2022-12-07T09:28:13;23.95;;;12.57;;
23680;SDS011;62915;50.832;4.462;2022-12-07T09:30:44;18.75;;;12.00;;
23680;SDS011;62915;50.832;4.462;2022-12-07T09:33:11;16.48;;;11.57;;
23680;SDS011;62915;50.832;4.462;2022-12-07T09:35:36;17.42;;;11.05;;
23680;SDS011;62915;50.832;4.462;2022-12-07T09:38:02;24.55;;;11.23;;
23680;SDS011;62915;50.832;4.462;2022-12-07T09:40:28;16.90;;;10.27;;
23680;SDS011;62915;50.832;4.462;2022-12-07T09:42:53;15.35;;;11.27;;
23680;SDS011;62915;50.832;4.462;2022-12-07T09:45:22;18.58;;;11.60;;
23680;SDS011;62915;50.832;4.462;2022-12-07T09:47:51;18.38;;;11.02;;
23680;SDS011;62915;50.832;4.462;2022-12-07T09:50:23;21.13;;;10.98;;
23680;SDS011;62915;50.832;4.462;2022-12-07T09:52:50;18.27;;;11.13;;
23680;SDS011;62915;50.832;4.462;2022-12-07T09:55:26;14.13;;;10.90;;
23680;SDS011;62915;50.832;4.462;2022-12-07T09:57:54;20.35;;;10.70;;
23680;SDS011;62915;50.832;4.462;2022-12-07T10:00:21;19.73;;;12.70;;
23680;SDS011;62915;50.832;4.462;2022-12-07T10:03:02;24.08;;;14.32;;
23680;SDS011;62915;50.832;4.462;2022-12-07T10:05:32;23.05;;;12.98;;
23680;SDS011;62915;50.832;4.462;2022-12-07T10:08:03;22.73;;;12.43;;
23680;SDS011;62915;50.832;4.462;2022-12-07T10:10:30;18.15;;;11.40;;
23680;SDS011;62915;50.832;4.462;2022-12-07T10:13:01;24.02;;;13.13;;
23680;SDS011;62915;50.832;4.462;2022-12-07T10:15:52;44.58;;;16.63;;
23680;SDS011;62915;50.832;4.462;2022-12-07T10:20:47;12.50;;;9.05;;
23680;SDS011;62915;50.832;4.462;2022-12-07T10:23:14;15.10;;;9.32;;
23680;SDS011;62915;50.832;4.462;2022-12-07T10:25:42;12.15;;;8.77;;
23680;SDS011;62915;50.832;4.462;2022-12-07T10:33:27;11.07;;;7.85;;
23680;SDS011;62915;50.832;4.462;2022-12-07T10:35:55;16.35;;;7.82;;
23680;SDS011;62915;50.832;4.462;2022-12-07T10:38:21;13.73;;;8.02;;
23680;SDS011;62915;50.832;4.462;2022-12-07T10:40:47;12.07;;;8.30;;
23680;SDS011;62915;50.832;4.462;2022-12-07T10:45:43;19.88;;;8.57;;
23680;SDS011;62915;50.832;4.462;2022-12-07T10:48:34;15.77;;;8.85;;
23680;SDS011;62915;50.832;4.462;2022-12-07T11:01:45;16.48;;;7.57;;
23680;SDS011;62915;50.832;4.462;2022-12-07T11:07:14;12.60;;;7.82;;
23680;SDS011;62915;50.832;4.462;2022-12-07T11:15:04;11.50;;;6.95;;
23680;SDS011;62915;50.832;4.462;2022-12-07T11:17:47;10.27;;;6.85;;
23680;SDS011;62915;50.832;4.462;2022-12-07T11:22:51;11.38;;;6.10;;
23680;SDS011;62915;50.832;4.462;2022-12-07T11:26:04;13.53;;;7.37;;
23680;SDS011;62915;50.832;4.462;2022-12-07T11:28:54;10.18;;;6.13;;
23680;SDS011;62915;50.832;4.462;2022-12-07T11:37:25;14.95;;;6.45;;
23680;SDS011;62915;50.832;4.462;2022-12-07T11:40:00;8.45;;;6.07;;
23680;SDS011;62915;50.832;4.462;2022-12-07T11:42:30;10.77;;;6.23;;
23680;SDS011;62915;50.832;4.462;2022-12-07T11:45:21;11.85;;;6.25;;
23680;SDS011;62915;50.832;4.462;2022-12-07T11:47:53;13.15;;;6.10;;
23680;SDS011;62915;50.832;4.462;2022-12-07T11:50:34;9.07;;;6.32;;
23680;SDS011;62915;50.832;4.462;2022-12-07T11:58:22;12.70;;;6.47;;
23680;SDS011;62915;50.832;4.462;2022-12-07T12:06:36;9.93;;;5.77;;
23680;SDS011;62915;50.832;4.462;2022-12-07T12:14:59;13.60;;;6.07;;
23680;SDS011;62915;50.832;4.462;2022-12-07T12:22:52;7.45;;;5.35;;
23680;SDS011;62915;50.832;4.462;2022-12-07T12:25:46;7.47;;;4.50;;
23680;SDS011;62915;50.832;4.462;2022-12-07T12:33:46;9.82;;;4.28;;
23680;SDS011;62915;50.832;4.462;2022-12-07T12:37:07;8.65;;;4.15;;
23680;SDS011;62915;50.832;4.462;2022-12-07T12:44:01;6.28;;;4.10;;
23680;SDS011;62915;50.832;4.462;2022-12-07T12:51:41;5.57;;;3.22;;
23680;SDS011;62915;50.832;4.462;2022-12-07T12:54:30;5.40;;;2.85;;
23680;SDS011;62915;50.832;4.462;2022-12-07T13:02:27;4.65;;;2.55;;
23680;SDS011;62915;50.832;4.462;2022-12-07T13:13:02;5.55;;;2.55;;
23680;SDS011;62915;50.832;4.462;2022-12-07T13:15:38;6.15;;;3.08;;
23680;SDS011;62915;50.832;4.462;2022-12-07T13:23:31;8.75;;;3.00;;
23680;SDS011;62915;50.832;4.462;2022-12-07T13:26:20;8.13;;;3.23;;
23680;SDS011;62915;50.832;4.462;2022-12-07T13:36:52;4.88;;;2.85;;
23680;SDS011;62915;50.832;4.462;2022-12-07T13:39:19;9.38;;;3.58;;
23680;SDS011;62915;50.832;4.462;2022-12-07T13:41:51;4.28;;;2.85;;
23680;SDS011;62915;50.832;4.462;2022-12-07T13:44:18;6.50;;;3.22;;
23680;SDS011;62915;50.832;4.462;2022-12-07T13:49:26;7.40;;;3.05;;
23680;SDS011;62915;50.832;4.462;2022-12-07T13:52:08;10.05;;;3.47;;
23680;SDS011;62915;50.832;4.462;2022-12-07T13:54:43;5.18;;;3.00;;
23680;SDS011;62915;50.832;4.462;2022-12-07T13:57:13;10.60;;;2.90;;
23680;SDS011;62915;50.832;4.462;2022-12-07T13:59:40;7.20;;;3.88;;
23680;SDS011;62915;50.832;4.462;2022-12-07T14:02:17;6.18;;;3.45;;
23680;SDS011;62915;50.832;4.462;2022-12-07T14:04:50;10.73;;;3.53;;
23680;SDS011;62915;50.832;4.462;2022-12-07T14:07:23;5.93;;;3.40;;
23680;SDS011;62915;50.832;4.462;2022-12-07T14:09:55;7.15;;;3.65;;
23680;SDS011;62915;50.832;4.462;2022-12-07T14:12:23;7.32;;;3.70;;
23680;SDS011;62915;50.832;4.462;2022-12-07T14:14:50;9.43;;;4.30;;
23680;SDS011;62915;50.832;4.462;2022-12-07T14:17:18;7.88;;;3.85;;
23680;SDS011;62915;50.832;4.462;2022-12-07T14:22:22;8.35;;;3.10;;
23680;SDS011;62915;50.832;4.462;2022-12-07T14:25:02;5.63;;;2.67;;
23680;SDS011;62915;50.832;4.462;2022-12-07T14:27:38;5.18;;;2.65;;
23680;SDS011;62915;50.832;4.462;2022-12-07T14:30:05;6.40;;;2.80;;
23680;SDS011;62915;50.832;4.462;2022-12-07T14:32:31;7.40;;;3.13;;
23680;SDS011;62915;50.832;4.462;2022-12-07T14:35:03;5.32;;;2.80;;
23680;SDS011;62915;50.832;4.462;2022-12-07T14:37:37;5.15;;;3.10;;
23680;SDS011;62915;50.832;4.462;2022-12-07T14:40:04;7.43;;;2.97;;
23680;SDS011;62915;50.832;4.462;2022-12-07T14:42:30;5.25;;;3.08;;
23680;SDS011;62915;50.832;4.462;2022-12-07T14:44:58;5.43;;;3.67;;
23680;SDS011;62915;50.832;4.462;2022-12-07T14:47:24;5.65;;;3.38;;
23680;SDS011;62915;50.832;4.462;2022-12-07T14:49:51;6.07;;;4.18;;
23680;SDS011;62915;50.832;4.462;2022-12-07T14:52:21;4.60;;;3.85;;
23680;SDS011;62915;50.832;4.462;2022-12-07T14:54:49;5.43;;;4.10;;
23680;SDS011;62915;50.832;4.462;2022-12-07T14:57:15;7.18;;;5.00;;
23680;SDS011;62915;50.832;4.462;2022-12-07T14:59:41;6.25;;;4.95;;
23680;SDS011;62915;50.832;4.462;2022-12-07T15:02:08;9.07;;;5.00;;
23680;SDS011;62915;50.832;4.462;2022-12-07T15:04:36;6.63;;;4.90;;
23680;SDS011;62915;50.832;4.462;2022-12-07T15:07:02;12.30;;;4.85;;
23680;SDS011;62915;50.832;4.462;2022-12-07T15:09:29;11.30;;;4.53;;
23680;SDS011;62915;50.832;4.462;2022-12-07T15:11:55;7.38;;;4.38;;
23680;SDS011;62915;50.832;4.462;2022-12-07T15:14:20;5.85;;;4.25;;
23680;SDS011;62915;50.832;4.462;2022-12-07T15:16:46;6.45;;;3.92;;
23680;SDS011;62915;50.832;4.462;2022-12-07T15:19:13;8.23;;;3.38;;
23680;SDS011;62915;50.832;4.462;2022-12-07T15:21:41;10.00;;;3.25;;
23680;SDS011;62915;50.832;4.462;2022-12-07T15:24:08;8.45;;;3.10;;
23680;SDS011;62915;50.832;4.462;2022-12-07T15:26:35;5.20;;;2.88;;
23680;SDS011;62915;50.832;4.462;2022-12-07T15:29:01;4.10;;;2.80;;
23680;SDS011;62915;50.832;4.462;2022-12-07T15:31:26;6.03;;;2.83;;
23680;SDS011;62915;50.832;4.462;2022-12-07T15:33:52;5.20;;;3.08;;
23680;SDS011;62915;50.832;4.462;2022-12-07T15:36:22;6.63;;;2.80;;
23680;SDS011;62915;50.832;4.462;2022-12-07T15:38:49;5.65;;;2.53;;
23680;SDS011;62915;50.832;4.462;2022-12-07T15:41:15;6.97;;;3.78;;
23680;SDS011;62915;50.832;4.462;2022-12-07T15:43:41;5.95;;;3.28;;
23680;SDS011;62915;50.832;4.462;2022-12-07T15:46:29;5.32;;;3.20;;
23680;SDS011;62915;50.832;4.462;2022-12-07T15:48:56;9.05;;;3.58;;
23680;SDS011;62915;50.832;4.462;2022-12-07T15:51:21;5.57;;;4.43;;
23680;SDS011;62915;50.832;4.462;2022-12-07T15:53:47;9.43;;;4.53;;
23680;SDS011;62915;50.832;4.462;2022-12-07T15:56:13;6.65;;;3.83;;
23680;SDS011;62915;50.832;4.462;2022-12-07T15:58:38;7.28;;;3.42;;
23680;SDS011;62915;50.832;4.462;2022-12-07T16:01:11;8.25;;;4.13;;
23680;SDS011;62915;50.832;4.462;2022-12-07T16:03:37;11.13;;;4.40;;
23680;SDS011;62915;50.832;4.462;2022-12-07T16:06:03;6.70;;;4.35;;
23680;SDS011;62915;50.832;4.462;2022-12-07T16:08:29;9.00;;;4.15;;
23680;SDS011;62915;50.832;4.462;2022-12-07T16:10:55;12.40;;;6.22;;
23680;SDS011;62915;50.832;4.462;2022-12-07T16:13:20;6.80;;;4.78;;
23680;SDS011;62915;50.832;4.462;2022-12-07T16:15:46;8.48;;;5.03;;
23680;SDS011;62915;50.832;4.462;2022-12-07T16:18:12;6.10;;;4.53;;
23680;SDS011;62915;50.832;4.462;2022-12-07T16:20:38;5.65;;;4.07;;
23680;SDS011;62915;50.832;4.462;2022-12-07T16:23:04;8.40;;;4.20;;
23680;SDS011;62915;50.832;4.462;2022-12-07T16:25:29;8.18;;;4.82;;
23680;SDS011;62915;50.832;4.462;2022-12-07T16:27:55;7.65;;;4.70;;
23680;SDS011;62915;50.832;4.462;2022-12-07T16:30:20;8.65;;;4.75;;
23680;SDS011;62915;50.832;4.462;2022-12-07T16:32:46;9.93;;;5.38;;
23680;SDS011;62915;50.832;4.462;2022-12-07T16:35:12;7.93;;;5.03;;
23680;SDS011;62915;50.832;4.462;2022-12-07T16:37:38;7.78;;;5.00;;
23680;SDS011;62915;50.832;4.462;2022-12-07T16:40:06;10.88;;;5.68;;
23680;SDS011;62915;50.832;4.462;2022-12-07T16:42:33;10.98;;;5.28;;
23680;SDS011;62915;50.832;4.462;2022-12-07T16:44:59;8.40;;;5.10;;
23680;SDS011;62915;50.832;4.462;2022-12-07T16:47:26;7.38;;;5.25;;
23680;SDS011;62915;50.832;4.462;2022-12-07T16:49:51;7.57;;;5.18;;
23680;SDS011;62915;50.832;4.462;2022-12-07T16:52:18;9.95;;;5.63;;
23680;SDS011;62915;50.832;4.462;2022-12-07T16:54:44;9.10;;;6.57;;
23680;SDS011;62915;50.832;4.462;2022-12-07T16:57:10;10.85;;;5.60;;
23680;SDS011;62915;50.832;4.462;2022-12-07T16:59:36;10.90;;;5.95;;
23680;SDS011;62915;50.832;4.462;2022-12-07T17:02:01;9.07;;;6.15;;
23680;SDS011;62915;50.832;4.462;2022-12-07T17:04:28;9.68;;;6.05;;
23680;SDS011;62915;50.832;4.462;2022-12-07T17:06:54;14.73;;;7.18;;
23680;SDS011;62915;50.832;4.462;2022-12-07T17:09:19;17.73;;;6.80;;
23680;SDS011;62915;50.832;4.462;2022-12-07T17:11:45;11.55;;;7.25;;